Time;durP1;ratioP1;P1;durP2;ratioP2;P2;SDS_P1;SDS_P2;PMS_P1;PMS_P2;Temp;Humidity;BMP_temperature;BMP_pressure;BME280_temperature;BME280_humidity;BME280_pressure;Samples;Min_cycle;Max_cycle;Signal;HPM_P1;HPM_P2
2022/03/07 00:00:15;;;;;;;14.30;7.43;;;;;;;-1.80;67.58;96657.75;5021226;28;20037;-84
2022/03/07 00:02:41;;;;;;;11.47;6.63;;;;;;;-1.91;67.36;96662.59;5050490;28;20036;-83
2022/03/07 00:05:07;;;;;;;12.50;7.00;;;;;;;-1.89;66.40;96663.34;5049461;28;21000;-84
2022/03/07 00:07:33;;;;;;;14.13;7.10;;;;;;;-1.87;66.75;96663.28;5018366;28;20474;-84
2022/03/07 00:09:58;;;;;;;13.77;6.93;;;;;;;-1.87;66.49;96666.69;5024024;28;20497;-83
2022/03/07 00:12:24;;;;;;;12.53;7.60;;;;;;;-1.95;66.22;96661.88;5034910;28;20067;-84
2022/03/07 00:14:50;;;;;;;12.97;6.70;;;;;;;-1.97;66.08;96662.88;5024679;28;20032;-84
2022/03/07 00:17:16;;;;;;;11.93;7.67;;;;;;;-1.93;66.79;96667.00;5030269;28;20460;-84
2022/03/07 00:19:41;;;;;;;12.23;8.17;;;;;;;-1.90;66.63;96664.28;5029577;28;20390;-85
2022/03/07 00:22:10;;;;;;;12.07;7.07;;;;;;;-1.94;66.23;96666.16;5028263;28;20048;-84
2022/03/07 00:24:36;;;;;;;14.30;8.20;;;;;;;-1.84;65.81;96663.97;5034028;28;20087;-84
2022/03/07 00:27:04;;;;;;;12.17;7.67;;;;;;;-1.92;66.56;96668.66;5048583;28;20841;-84
2022/03/07 00:29:31;;;;;;;14.53;8.23;;;;;;;-1.96;66.46;96662.81;5030408;28;20040;-84
2022/03/07 00:32:05;;;;;;;11.10;6.93;;;;;;;-2.02;66.71;96663.09;5033869;28;20452;-84
2022/03/07 00:34:31;;;;;;;13.82;7.53;;;;;;;-2.09;68.04;96666.84;5042824;28;20471;-84
2022/03/07 00:36:56;;;;;;;14.60;7.37;;;;;;;-2.01;67.45;96676.81;5040143;28;20033;-84
2022/03/07 00:39:22;;;;;;;15.37;7.43;;;;;;;-2.11;67.62;96683.28;5047433;28;20471;-84
2022/03/07 00:41:48;;;;;;;16.27;7.90;;;;;;;-2.09;67.83;96681.50;5045175;28;20466;-85
2022/03/07 00:44:14;;;;;;;14.30;7.40;;;;;;;-2.00;67.07;96681.06;5025576;28;20056;-84
2022/03/07 00:46:45;;;;;;;14.50;8.70;;;;;;;-2.07;67.33;96690.00;5033417;28;20393;-84
2022/03/07 00:49:10;;;;;;;13.70;7.13;;;;;;;-2.09;67.31;96684.06;5036876;28;20446;-84
2022/03/07 00:51:37;;;;;;;13.13;7.67;;;;;;;-2.13;67.10;96684.22;5032509;28;20451;-84
2022/03/07 00:54:03;;;;;;;12.40;8.33;;;;;;;-2.17;67.06;96677.53;5027697;28;20456;-84
2022/03/07 00:56:29;;;;;;;13.80;7.73;;;;;;;-2.04;66.87;96684.72;5029591;28;20037;-84
2022/03/07 00:58:55;;;;;;;17.23;8.77;;;;;;;-2.08;66.96;96680.56;5034651;28;20043;-85
2022/03/07 01:01:20;;;;;;;11.37;7.50;;;;;;;-2.13;67.07;96688.53;5060098;28;20033;-84
2022/03/07 01:03:49;;;;;;;11.90;7.83;;;;;;;-2.05;66.92;96680.44;5026933;28;20056;-85
2022/03/07 01:06:15;;;;;;;15.23;7.50;;;;;;;-2.13;66.40;96684.22;5043516;28;20455;-84
2022/03/07 01:08:43;;;;;;;12.23;8.17;;;;;;;-2.18;67.19;96680.16;5023089;28;20663;-85
2022/03/07 01:11:10;;;;;;;11.93;7.70;;;;;;;-2.11;67.52;96683.28;5032628;28;20033;-85
2022/03/07 01:13:36;;;;;;;12.30;8.60;;;;;;;-2.13;67.82;96673.91;5027962;28;20516;-83
2022/03/07 01:16:01;;;;;;;13.17;7.83;;;;;;;-2.20;68.32;96669.94;5028266;28;20439;-85
2022/03/07 01:18:27;;;;;;;13.90;7.67;;;;;;;-2.17;68.06;96667.22;5026176;28;20037;-85
2022/03/07 01:20:53;;;;;;;14.23;9.20;;;;;;;-2.27;68.15;96658.25;5023547;28;20029;-84
2022/03/07 01:23:26;;;;;;;14.53;8.23;;;;;;;-2.14;68.43;96667.09;5066738;28;20068;-84
2022/03/07 01:25:52;;;;;;;14.60;7.93;;;;;;;-2.16;67.80;96663.72;5040392;28;20033;-84
2022/03/07 01:28:18;;;;;;;15.40;8.33;;;;;;;-2.23;68.67;96666.66;5030244;28;20044;-84
2022/03/07 01:30:43;;;;;;;17.37;8.83;;;;;;;-2.37;69.12;96667.31;5059920;28;20402;-84
2022/03/07 01:33:09;;;;;;;15.53;9.90;;;;;;;-2.31;69.30;96661.03;5019065;28;20402;-84
2022/03/07 01:35:35;;;;;;;17.27;9.83;;;;;;;-2.37;69.34;96654.44;5038776;28;20052;-85
2022/03/07 01:38:01;;;;;;;17.67;9.33;;;;;;;-2.36;69.03;96661.25;5032344;28;20037;-85
2022/03/07 01:40:28;;;;;;;13.57;8.07;;;;;;;-2.31;69.21;96658.44;5030125;28;20151;-86
2022/03/07 01:42:55;;;;;;;17.53;9.27;;;;;;;-2.38;69.89;96657.91;5042756;28;20368;-85
2022/03/07 01:45:30;;;;;;;16.80;8.40;;;;;;;-2.35;69.62;96656.91;5037662;28;20524;-84
2022/03/07 01:47:56;;;;;;;13.73;9.10;;;;;;;-2.33;70.36;96655.13;5032362;28;20041;-83
2022/03/07 01:50:29;;;;;;;14.43;8.63;;;;;;;-2.38;70.18;96647.63;5044404;28;20489;-84
2022/03/07 01:52:55;;;;;;;14.25;8.60;;;;;;;-2.37;70.36;96646.69;5043331;28;20448;-85
2022/03/07 01:55:23;;;;;;;17.90;9.07;;;;;;;-2.40;70.88;96650.25;5032883;28;20621;-84
2022/03/07 01:57:55;;;;;;;15.97;8.60;;;;;;;-2.44;70.73;96637.59;5024773;28;20456;-84
2022/03/07 02:00:26;;;;;;;16.25;9.50;;;;;;;-2.45;70.14;96646.19;5030702;28;20478;-84
2022/03/07 02:02:54;;;;;;;13.97;8.90;;;;;;;-2.50;70.34;96637.84;5025865;28;20385;-84
2022/03/07 02:05:33;;;;;;;15.30;9.43;;;;;;;-2.46;71.09;96636.81;5026947;28;20444;-85
2022/03/07 02:08:03;;;;;;;14.98;9.55;;;;;;;-2.43;71.35;96634.09;5030266;28;20494;-84
2022/03/07 02:11:01;;;;;;;14.93;8.67;;;;;;;-2.51;71.79;96633.63;5028708;28;20029;-84
2022/03/07 02:13:30;;;;;;;18.23;11.57;;;;;;;-2.50;72.46;96627.56;5034738;28;20459;-83
2022/03/07 02:16:03;;;;;;;16.85;10.50;;;;;;;-2.55;71.94;96626.91;5031271;28;20507;-84
2022/03/07 02:18:31;;;;;;;17.30;10.07;;;;;;;-2.65;73.08;96635.06;5049164;28;20037;-84
2022/03/07 02:21:15;;;;;;;18.13;9.40;;;;;;;-2.59;72.27;96628.78;5021063;28;20248;-84
2022/03/07 02:24:05;;;;;;;15.98;9.80;;;;;;;-2.54;73.14;96626.03;5034431;28;20475;-83
2022/03/07 02:26:31;;;;;;;14.37;9.73;;;;;;;-2.61;73.08;96625.47;5027586;28;20064;-84
2022/03/07 02:28:58;;;;;;;15.43;9.30;;;;;;;-2.62;72.94;96627.22;5052830;28;20451;-84
2022/03/07 02:31:29;;;;;;;16.07;9.57;;;;;;;-2.60;73.38;96632.28;5033967;28;20448;-84
2022/03/07 02:33:57;;;;;;;15.57;9.83;;;;;;;-2.52;73.21;96629.34;5037527;28;20962;-84
2022/03/07 02:36:23;;;;;;;14.77;8.87;;;;;;;-2.72;73.97;96633.66;5034427;28;20551;-83
2022/03/07 02:38:50;;;;;;;15.13;9.37;;;;;;;-2.63;74.97;96630.69;5026542;28;20721;-85
2022/03/07 02:41:17;;;;;;;15.27;8.93;;;;;;;-2.61;74.81;96633.19;5029105;28;20454;-83
2022/03/07 02:43:47;;;;;;;14.53;9.60;;;;;;;-2.69;75.31;96633.53;5033557;28;20499;-83
2022/03/07 02:46:13;;;;;;;15.87;9.53;;;;;;;-2.67;75.66;96630.91;5023915;28;20479;-83
2022/03/07 02:48:39;;;;;;;16.00;9.77;;;;;;;-2.68;75.48;96627.50;5021915;28;20467;-82
2022/03/07 02:51:05;;;;;;;13.43;8.73;;;;;;;-2.68;75.55;96630.06;5044832;28;20463;-83
2022/03/07 02:53:31;;;;;;;14.37;10.00;;;;;;;-2.70;75.71;96631.88;5028535;28;20447;-83
2022/03/07 02:55:56;;;;;;;17.20;10.63;;;;;;;-2.70;76.48;96626.72;5031120;28;20119;-83
2022/03/07 02:58:22;;;;;;;18.20;9.87;;;;;;;-2.73;76.41;96626.84;5033280;28;20076;-82
2022/03/07 03:01:00;;;;;;;16.47;10.23;;;;;;;-2.73;76.36;96623.44;5029105;28;20044;-82
2022/03/07 03:03:26;;;;;;;16.92;9.73;;;;;;;-2.76;77.08;96624.41;5027353;28;20091;-84
2022/03/07 03:05:54;;;;;;;18.87;10.27;;;;;;;-2.71;77.27;96630.19;5025878;28;20037;-84
2022/03/07 03:08:24;;;;;;;15.20;9.40;;;;;;;-2.75;77.29;96630.38;5032924;28;20593;-84
2022/03/07 03:10:50;;;;;;;15.95;9.93;;;;;;;-2.78;77.46;96628.81;5027083;28;20479;-83
2022/03/07 03:13:19;;;;;;;15.30;9.90;;;;;;;-2.80;77.46;96630.59;5031493;28;20495;-84
2022/03/07 03:15:47;;;;;;;16.70;10.03;;;;;;;-2.82;77.59;96637.53;5040461;28;20467;-84
2022/03/07 03:18:13;;;;;;;17.50;9.18;;;;;;;-2.81;77.94;96636.66;5039452;28;20532;-84
2022/03/07 03:20:40;;;;;;;16.47;10.33;;;;;;;-2.90;77.57;96635.31;5032287;28;20025;-85
2022/03/07 03:23:06;;;;;;;14.70;9.70;;;;;;;-2.71;77.36;96639.66;5025733;28;20460;-85
2022/03/07 03:25:31;;;;;;;15.70;9.97;;;;;;;-2.82;78.46;96636.72;5027566;28;20391;-84
2022/03/07 03:27:57;;;;;;;14.97;9.37;;;;;;;-2.90;78.39;96635.31;5032151;28;20452;-84
2022/03/07 03:30:23;;;;;;;16.70;9.73;;;;;;;-2.88;78.20;96642.97;5028031;28;20059;-84
2022/03/07 03:33:03;;;;;;;18.00;10.23;;;;;;;-2.80;78.19;96651.19;5050902;28;20238;-84
2022/03/07 03:35:29;;;;;;;15.87;9.80;;;;;;;-2.75;78.20;96640.69;5032134;28;20040;-84
2022/03/07 03:37:56;;;;;;;19.70;9.57;;;;;;;-2.79;78.25;96652.84;5040972;28;20466;-84
2022/03/07 03:40:22;;;;;;;14.88;9.27;;;;;;;-2.88;78.19;96654.13;5053620;28;20452;-84
2022/03/07 03:42:48;;;;;;;16.13;9.70;;;;;;;-2.75;79.29;96644.13;5063448;28;20108;-84
2022/03/07 03:45:14;;;;;;;14.48;9.55;;;;;;;-2.82;77.66;96645.25;5025485;28;20488;-84
2022/03/07 03:47:42;;;;;;;14.77;9.07;;;;;;;-2.95;79.04;96647.56;5028962;28;20055;-84
2022/03/07 03:50:13;;;;;;;13.93;9.13;;;;;;;-2.90;79.01;96655.06;5029083;28;20091;-84
2022/03/07 03:52:40;;;;;;;14.30;8.93;;;;;;;-2.85;78.03;96642.81;5029376;28;21134;-84
2022/03/07 03:55:07;;;;;;;15.83;8.93;;;;;;;-2.80;78.00;96645.22;5028203;28;20448;-85
2022/03/07 03:57:33;;;;;;;12.63;8.83;;;;;;;-2.89;78.55;96642.13;5061240;28;20480;-85
2022/03/07 03:59:59;;;;;;;14.10;9.40;;;;;;;-2.95;78.75;96646.69;5031999;28;20478;-85
2022/03/07 04:02:31;;;;;;;14.52;8.43;;;;;;;-2.90;78.80;96644.78;5023796;28;20033;-85
2022/03/07 04:04:58;;;;;;;13.27;8.15;;;;;;;-2.87;78.67;96649.78;5036983;28;20041;-83
2022/03/07 04:07:24;;;;;;;13.17;8.47;;;;;;;-2.80;78.43;96640.91;5034338;28;20087;-85
2022/03/07 04:09:50;;;;;;;14.13;9.07;;;;;;;-2.89;78.39;96638.72;5032844;28;20452;-84
2022/03/07 04:12:20;;;;;;;15.10;8.53;;;;;;;-2.97;78.69;96643.38;5041207;28;20116;-85
2022/03/07 04:14:46;;;;;;;17.85;10.13;;;;;;;-3.04;79.24;96641.97;5047976;28;20045;-84
2022/03/07 04:17:12;;;;;;;14.47;8.60;;;;;;;-3.06;79.87;96638.63;5033792;28;20380;-84
2022/03/07 04:19:38;;;;;;;18.53;10.90;;;;;;;-2.98;80.44;96641.72;5025184;28;20032;-85
2022/03/07 04:22:04;;;;;;;14.40;8.93;;;;;;;-3.11;81.10;96636.25;5045957;28;20036;-84
2022/03/07 04:24:37;;;;;;;15.80;9.52;;;;;;;-3.11;81.82;96644.81;5029803;28;20078;-84
2022/03/07 04:27:03;;;;;;;15.02;9.02;;;;;;;-3.16;82.33;96649.31;5032269;28;20045;-85
2022/03/07 04:29:39;;;;;;;17.48;9.50;;;;;;;-3.11;82.83;96651.69;5057677;28;20017;-85
2022/03/07 04:32:05;;;;;;;14.85;8.57;;;;;;;-3.15;82.03;96656.13;5045569;28;20123;-84
2022/03/07 04:34:31;;;;;;;17.25;9.63;;;;;;;-3.15;83.33;96655.31;5048597;28;20526;-85
2022/03/07 04:37:11;;;;;;;14.97;8.00;;;;;;;-3.12;83.05;96656.00;5042528;28;20028;-84
2022/03/07 04:39:37;;;;;;;17.02;9.65;;;;;;;-3.18;83.38;96650.28;5039597;28;20029;-85
2022/03/07 04:42:04;;;;;;;14.13;8.40;;;;;;;-3.10;83.55;96648.22;5051983;28;20071;-85
2022/03/07 04:44:29;;;;;;;13.43;7.90;;;;;;;-3.20;85.14;96662.38;5033840;28;20102;-85
2022/03/07 04:46:55;;;;;;;15.23;8.93;;;;;;;-3.19;84.82;96654.56;5030267;28;20033;-84
2022/03/07 04:49:36;;;;;;;18.07;10.20;;;;;;;-3.12;84.71;96660.28;5058250;28;20501;-84
2022/03/07 04:52:02;;;;;;;14.48;8.23;;;;;;;-3.19;85.70;96659.72;5042973;28;20490;-85
2022/03/07 04:54:31;;;;;;;14.07;8.37;;;;;;;-3.23;86.52;96663.31;5049085;28;20028;-84
2022/03/07 04:56:57;;;;;;;15.32;9.18;;;;;;;-3.26;86.78;96668.59;5022414;28;20048;-85
2022/03/07 04:59:23;;;;;;;14.30;8.57;;;;;;;-3.30;87.47;96666.22;5035056;28;20057;-85
2022/03/07 05:01:48;;;;;;;15.77;9.10;;;;;;;-3.23;87.77;96663.31;5018609;28;20037;-84
2022/03/07 05:04:16;;;;;;;13.73;8.73;;;;;;;-3.27;88.00;96674.66;5044874;28;20404;-84
2022/03/07 05:06:42;;;;;;;14.55;8.90;;;;;;;-3.25;88.76;96666.84;5032860;28;20027;-84
2022/03/07 05:09:13;;;;;;;17.20;10.10;;;;;;;-3.25;88.85;96679.72;5034182;28;20041;-85
2022/03/07 05:11:54;;;;;;;14.20;8.25;;;;;;;-3.26;89.32;96668.59;5061599;28;20084;-83
2022/03/07 05:14:20;;;;;;;13.20;9.15;;;;;;;-3.26;89.95;96672.91;5038717;28;20033;-85
2022/03/07 05:16:46;;;;;;;16.00;9.23;;;;;;;-3.28;90.53;96674.72;5034163;28;20072;-85
2022/03/07 05:19:12;;;;;;;13.67;8.57;;;;;;;-3.27;90.11;96684.94;5027058;28;20041;-84
2022/03/07 05:21:37;;;;;;;13.87;8.63;;;;;;;-3.30;91.71;96686.81;5032523;28;20550;-84
2022/03/07 05:24:05;;;;;;;15.57;9.23;;;;;;;-3.34;92.24;96686.09;5024145;28;20049;-84
2022/03/07 05:26:31;;;;;;;15.70;9.60;;;;;;;-3.21;91.96;96686.44;5047770;28;20037;-84
2022/03/07 05:28:59;;;;;;;20.10;11.27;;;;;;;-3.33;92.96;96693.72;5032739;28;20033;-84
2022/03/07 05:31:24;;;;;;;14.85;9.05;;;;;;;-3.34;92.94;96688.66;5028446;28;20060;-84
2022/03/07 05:33:50;;;;;;;16.80;9.87;;;;;;;-3.35;93.29;96692.97;5043754;28;20145;-83
2022/03/07 05:36:16;;;;;;;24.80;11.70;;;;;;;-1.81;100.00;96684.47;5030157;28;20033;-85
2022/03/07 05:38:46;;;;;;;16.50;10.07;;;;;;;-3.03;94.94;96695.94;5034426;28;20033;-82
2022/03/07 05:41:30;;;;;;;16.35;9.32;;;;;;;-3.17;94.11;96691.38;5035428;28;20036;-82
2022/03/07 05:44:01;;;;;;;17.58;9.25;;;;;;;-3.21;94.95;96696.72;5028060;28;20500;-82
2022/03/07 05:46:27;;;;;;;18.23;10.40;;;;;;;-3.20;95.01;96698.38;5067466;28;20040;-83
2022/03/07 05:48:52;;;;;;;18.13;9.10;;;;;;;-3.17;95.11;96699.09;5029345;28;20025;-83
2022/03/07 05:51:23;;;;;;;15.53;9.43;;;;;;;-3.26;95.06;96698.63;5036685;28;20124;-82
2022/03/07 05:53:50;;;;;;;14.55;9.00;;;;;;;-3.26;95.27;96699.47;5034408;28;20467;-82
2022/03/07 05:56:16;;;;;;;17.65;10.00;;;;;;;-3.32;96.19;96704.84;5020509;28;20060;-84
2022/03/07 05:58:41;;;;;;;17.52;9.70;;;;;;;-3.30;95.89;96692.78;5027116;28;20059;-83
2022/03/07 06:01:07;;;;;;;15.63;9.43;;;;;;;-3.29;96.19;96696.19;5027238;28;20073;-83
2022/03/07 06:03:33;;;;;;;19.33;10.00;;;;;;;-3.30;96.49;96697.91;5048084;28;20029;-83
2022/03/07 06:05:59;;;;;;;17.07;9.83;;;;;;;-3.20;96.08;96699.22;5047151;28;20028;-79
2022/03/07 06:08:25;;;;;;;17.42;9.52;;;;;;;-3.24;95.87;96700.25;5037638;28;20052;-80
2022/03/07 06:10:51;;;;;;;18.83;10.37;;;;;;;-3.18;96.20;96701.72;5033439;28;20484;-79
2022/03/07 06:13:18;;;;;;;16.03;10.23;;;;;;;-3.14;95.11;96708.41;5042751;28;20108;-79
2022/03/07 06:15:47;;;;;;;16.35;9.65;;;;;;;-3.20;95.67;96703.53;5043134;28;20024;-79
2022/03/07 06:18:12;;;;;;;17.63;10.27;;;;;;;-3.12;96.23;96712.59;5053143;28;20099;-79
2022/03/07 06:20:39;;;;;;;16.40;9.80;;;;;;;-3.22;96.39;96708.75;5046808;28;20041;-79
2022/03/07 06:23:05;;;;;;;18.38;10.70;;;;;;;-3.13;96.18;96716.06;5035386;28;20029;-79
2022/03/07 06:25:33;;;;;;;16.05;10.63;;;;;;;-3.17;95.95;96714.53;5036252;28;20551;-79
2022/03/07 06:28:03;;;;;;;15.68;9.10;;;;;;;-3.12;95.94;96712.59;5044731;28;20641;-79
2022/03/07 06:30:33;;;;;;;20.33;10.93;;;;;;;-3.20;96.06;96709.50;5050874;28;20033;-79
2022/03/07 06:32:59;;;;;;;18.70;10.85;;;;;;;-3.09;96.15;96712.44;5052225;28;20086;-79
2022/03/07 06:35:27;;;;;;;15.73;10.10;;;;;;;-3.20;96.75;96713.81;5043980;28;20044;-79
2022/03/07 06:37:53;;;;;;;15.98;10.18;;;;;;;-3.09;96.42;96717.59;5029778;28;20513;-79
2022/03/07 06:40:20;;;;;;;19.73;11.02;;;;;;;-3.14;96.39;96714.41;5045923;28;20466;-79
2022/03/07 06:42:48;;;;;;;28.38;16.45;;;;;;;-3.12;97.88;96720.31;5030687;28;20075;-79
2022/03/07 06:45:18;;;;;;;25.13;14.55;;;;;;;-3.12;96.99;96722.03;5047504;28;20037;-79
2022/03/07 06:47:46;;;;;;;30.60;19.23;;;;;;;-3.04;96.75;96724.31;5032965;28;20411;-79
2022/03/07 06:50:12;;;;;;;24.17;16.50;;;;;;;-2.90;96.76;96727.13;5035794;28;20502;-79
2022/03/07 06:52:38;;;;;;;20.27;13.85;;;;;;;-2.95;96.50;96729.03;5030231;28;20550;-79
2022/03/07 06:55:04;;;;;;;20.30;11.40;;;;;;;-2.95;96.01;96723.91;5029061;28;20124;-78
2022/03/07 06:57:32;;;;;;;21.70;11.40;;;;;;;-2.92;95.91;96728.91;5030504;28;20116;-78
2022/03/07 07:00:11;;;;;;;21.27;12.00;;;;;;;-3.09;96.50;96727.88;5032026;28;20564;-78
2022/03/07 07:02:39;;;;;;;18.20;10.80;;;;;;;-2.91;96.20;96731.44;5025152;28;20026;-79
2022/03/07 07:05:05;;;;;;;20.92;10.98;;;;;;;-2.76;94.65;96729.94;5030358;28;20466;-78
2022/03/07 07:07:32;;;;;;;16.13;9.63;;;;;;;-2.63;94.57;96720.78;5040656;28;20095;-78
2022/03/07 07:09:58;;;;;;;15.93;9.85;;;;;;;-2.33;92.92;96724.66;5028648;28;21167;-79
2022/03/07 07:12:27;;;;;;;16.73;9.97;;;;;;;-1.95;90.64;96722.91;5031269;28;20036;-78
2022/03/07 07:14:55;;;;;;;17.50;10.20;;;;;;;-2.12;90.43;96723.69;5030460;28;20475;-78
2022/03/07 07:17:21;;;;;;;16.70;10.77;;;;;;;-2.00;88.62;96725.72;5039498;28;20463;-78
2022/03/07 07:19:52;;;;;;;17.60;10.30;;;;;;;-2.03;89.57;96725.84;5032462;28;20028;-78
2022/03/07 07:22:18;;;;;;;15.00;9.38;;;;;;;-2.00;90.03;96725.72;5043722;28;20044;-78
2022/03/07 07:24:48;;;;;;;16.63;10.70;;;;;;;-2.11;88.56;96729.69;5031554;28;20025;-78
2022/03/07 07:27:14;;;;;;;17.13;9.97;;;;;;;-1.72;87.94;96724.44;5031138;28;20041;-78
2022/03/07 07:29:40;;;;;;;19.23;10.37;;;;;;;-1.32;85.26;96717.38;5036095;28;20471;-78
2022/03/07 07:32:06;;;;;;;15.90;9.27;;;;;;;-1.76;85.28;96718.59;5031113;28;20047;-78
2022/03/07 07:34:34;;;;;;;17.43;9.90;;;;;;;-1.59;83.29;96719.53;5012206;28;20464;-78
2022/03/07 07:37:07;;;;;;;14.93;8.80;;;;;;;-1.01;80.28;96717.50;5037498;28;20466;-78
2022/03/07 07:39:33;;;;;;;16.97;9.50;;;;;;;-0.49;77.19;96719.22;5026952;28;20530;-79
2022/03/07 07:41:58;;;;;;;17.30;10.87;;;;;;;-0.24;74.86;96722.16;5057073;28;20461;-79
2022/03/07 07:47:23;;;;;;;18.10;9.70;;;;;;;0.28;72.85;96717.72;5058816;28;20044;-79
2022/03/07 07:49:49;;;;;;;14.43;9.07;;;;;;;-0.07;73.20;96731.63;5028657;28;20822;-79
2022/03/07 07:52:14;;;;;;;17.00;9.60;;;;;;;0.01;73.05;96744.16;5038239;28;20460;-80
2022/03/07 07:54:43;;;;;;;14.27;9.03;;;;;;;0.42;69.51;96733.28;5043648;28;20076;-79
2022/03/07 07:57:29;;;;;;;13.60;9.17;;;;;;;-0.70;73.83;96749.56;5033512;28;20049;-79
2022/03/07 08:00:04;;;;;;;14.50;9.60;;;;;;;-0.66;74.84;96742.50;5042839;28;20487;-79
2022/03/07 08:02:38;;;;;;;15.70;9.73;;;;;;;-1.16;76.10;96764.75;5040205;28;20459;-79
2022/03/07 08:05:09;;;;;;;16.07;9.83;;;;;;;-0.83;74.86;96759.66;5029102;28;20554;-79
2022/03/07 08:07:35;;;;;;;14.70;9.20;;;;;;;-0.58;73.98;96761.00;5045895;28;20391;-79
2022/03/07 08:10:08;;;;;;;15.23;9.43;;;;;;;-1.04;75.49;96765.88;5028025;28;21008;-80
2022/03/07 08:12:34;;;;;;;14.13;9.33;;;;;;;-1.34;75.08;96763.91;5043661;28;21015;-79
2022/03/07 08:15:00;;;;;;;14.77;9.63;;;;;;;-1.64;77.27;96773.91;5027362;28;20460;-79
2022/03/07 08:17:26;;;;;;;14.77;8.87;;;;;;;-1.52;77.33;96772.50;5023931;28;20045;-75
2022/03/07 08:19:52;;;;;;;13.03;8.63;;;;;;;-1.64;77.63;96771.34;5045883;28;20432;-75
2022/03/07 08:22:18;;;;;;;15.73;9.10;;;;;;;-1.30;77.20;96770.56;5029169;28;20045;-75
2022/03/07 08:24:43;;;;;;;12.97;8.70;;;;;;;-1.44;75.42;96772.97;5040437;28;20060;-75
2022/03/07 08:27:09;;;;;;;14.07;8.77;;;;;;;-1.15;74.15;96763.81;5042338;28;20514;-75
2022/03/07 08:29:35;;;;;;;14.77;9.60;;;;;;;-0.57;72.07;96760.09;5051329;28;20048;-75
2022/03/07 08:32:01;;;;;;;11.80;7.97;;;;;;;-0.84;69.18;96765.75;5042525;28;20671;-75
2022/03/07 08:34:27;;;;;;;12.77;7.47;;;;;;;0.03;65.90;96762.97;5030840;28;20474;-75
2022/03/07 08:36:52;;;;;;;11.60;7.10;;;;;;;0.91;61.88;96762.47;5021429;28;20034;-75
2022/03/07 08:39:18;;;;;;;11.23;7.07;;;;;;;0.99;60.96;96762.00;5034572;28;20380;-75
2022/03/07 08:41:44;;;;;;;11.10;6.93;;;;;;;1.04;58.96;96772.09;5044443;28;20479;-75
2022/03/07 08:44:09;;;;;;;12.10;7.80;;;;;;;0.77;60.37;96761.53;5041914;28;20088;-75
2022/03/07 08:46:37;;;;;;;12.17;7.17;;;;;;;1.14;57.35;96768.06;5040919;28;20435;-75
2022/03/07 08:49:02;;;;;;;11.53;7.37;;;;;;;1.86;55.02;96766.41;5031698;28;20112;-75
2022/03/07 08:51:28;;;;;;;12.23;7.53;;;;;;;2.26;52.91;96761.38;5049793;28;20538;-75
2022/03/07 08:53:55;;;;;;;11.00;7.30;;;;;;;2.25;51.45;96772.72;5045748;28;20096;-75
2022/03/07 08:56:20;;;;;;;11.50;7.40;;;;;;;2.19;51.58;96768.72;5028364;28;20073;-75
2022/03/07 08:58:46;;;;;;;11.47;7.33;;;;;;;2.78;49.80;96769.34;5044943;28;21088;-75
2022/03/07 09:01:12;;;;;;;10.33;6.90;;;;;;;2.08;49.15;96781.53;5041209;28;20064;-75
2022/03/07 09:03:37;;;;;;;11.80;7.07;;;;;;;2.02;50.47;96790.50;5027054;28;20025;-75
2022/03/07 09:06:03;;;;;;;11.43;7.07;;;;;;;2.06;50.01;96781.59;5030058;28;20069;-75
2022/03/07 09:08:29;;;;;;;12.47;8.43;;;;;;;2.78;48.86;96776.28;5048267;28;20045;-75
2022/03/07 09:10:55;;;;;;;10.90;6.93;;;;;;;3.00;47.53;96784.34;5028716;28;20043;-75
2022/03/07 09:13:21;;;;;;;10.47;6.87;;;;;;;1.85;49.10;96785.50;5049122;28;20025;-75
2022/03/07 09:15:49;;;;;;;12.77;7.47;;;;;;;1.83;48.66;96788.19;5037080;28;20174;-75
2022/03/07 09:18:14;;;;;;;10.13;7.17;;;;;;;2.19;48.49;96794.66;5053465;28;20471;-75
2022/03/07 09:20:40;;;;;;;11.40;7.13;;;;;;;3.29;45.91;96781.63;5035136;28;20443;-75
2022/03/07 09:23:06;;;;;;;10.33;7.03;;;;;;;2.89;45.28;96779.03;5038113;28;20033;-75
2022/03/07 09:25:32;;;;;;;9.93;6.60;;;;;;;2.78;46.53;96794.44;5039718;28;20087;-75
2022/03/07 09:27:57;;;;;;;10.17;7.07;;;;;;;2.75;46.36;96792.03;5039929;28;21289;-75
2022/03/07 09:30:23;;;;;;;12.00;7.10;;;;;;;2.25;47.82;96801.25;5027382;28;20029;-75
2022/03/07 09:32:50;;;;;;;11.63;7.57;;;;;;;2.86;46.13;96794.81;5040553;28;20068;-75
2022/03/07 09:35:16;;;;;;;10.43;7.07;;;;;;;2.48;45.71;96789.41;5037877;28;20451;-75
2022/03/07 09:37:42;;;;;;;12.17;7.77;;;;;;;2.44;45.93;96801.75;5040669;28;20466;-75
2022/03/07 09:40:09;;;;;;;12.00;7.03;;;;;;;3.57;45.54;96803.22;5040061;28;20037;-75
2022/03/07 09:42:35;;;;;;;12.00;7.97;;;;;;;3.88;43.20;96795.00;5048464;28;20033;-75
2022/03/07 09:45:01;;;;;;;12.07;7.60;;;;;;;3.93;43.12;96795.53;5018219;28;20561;-75
2022/03/07 09:47:29;;;;;;;11.10;7.43;;;;;;;3.91;41.89;96800.00;5039864;28;20910;-75
2022/03/07 09:49:55;;;;;;;10.13;6.50;;;;;;;3.57;42.62;96805.81;5043321;28;20112;-75
2022/03/07 09:52:21;;;;;;;11.30;7.17;;;;;;;3.97;41.89;96793.56;5044981;28;20546;-75
2022/03/07 09:54:46;;;;;;;9.77;7.03;;;;;;;4.35;42.04;96793.50;5026051;28;20065;-75
2022/03/07 09:57:12;;;;;;;11.60;7.00;;;;;;;3.77;41.96;96800.09;5020002;28;20033;-75
2022/03/07 09:59:38;;;;;;;13.97;8.23;;;;;;;3.24;42.50;96813.13;5043271;28;20020;-75
2022/03/07 10:02:06;;;;;;;10.43;7.07;;;;;;;2.66;42.82;96809.06;5045446;28;20043;-75
2022/03/07 10:04:38;;;;;;;11.07;7.67;;;;;;;2.23;44.06;96813.47;5032005;28;20112;-75
2022/03/07 10:07:06;;;;;;;11.57;7.13;;;;;;;2.96;43.51;96811.47;5041894;28;20475;-75
2022/03/07 10:09:32;;;;;;;11.20;7.40;;;;;;;3.14;43.94;96801.66;5047051;28;20470;-75
2022/03/07 10:12:03;;;;;;;11.20;7.27;;;;;;;3.25;42.62;96803.53;5044909;28;20538;-75
2022/03/07 10:14:41;;;;;;;12.83;7.93;;;;;;;3.17;41.46;96808.44;5023132;28;20025;-75
2022/03/07 10:17:20;;;;;;;11.13;7.40;;;;;;;4.00;39.44;96808.97;5044214;28;21087;-75
2022/03/07 10:19:47;;;;;;;11.93;7.70;;;;;;;4.77;38.63;96806.22;5047162;28;20552;-75
2022/03/07 10:22:21;;;;;;;10.83;7.50;;;;;;;3.12;40.31;96816.53;5047216;28;20514;-75
2022/03/07 10:24:47;;;;;;;11.00;7.20;;;;;;;3.48;40.00;96809.84;5043162;28;20443;-75
2022/03/07 10:27:25;;;;;;;11.33;7.10;;;;;;;4.56;40.01;96792.94;5041030;28;20029;-75
2022/03/07 10:29:50;;;;;;;12.23;7.70;;;;;;;4.70;38.64;96790.19;5037392;28;20045;-75
2022/03/07 10:32:19;;;;;;;11.27;8.07;;;;;;;5.25;38.54;96796.63;5032925;28;20471;-75
2022/03/07 10:34:44;;;;;;;12.07;7.80;;;;;;;3.11;41.76;96808.81;5046596;28;20052;-74
2022/03/07 10:37:12;;;;;;;15.63;7.50;;;;;;;5.11;39.79;96794.19;5053173;28;20993;-75
2022/03/07 10:39:45;;;;;;;15.60;7.90;;;;;;;4.45;39.08;96786.69;5028122;28;20126;-75
2022/03/07 10:42:20;;;;;;;11.30;8.10;;;;;;;3.06;41.05;96799.56;5039307;28;20480;-75
2022/03/07 10:44:48;;;;;;;11.73;7.43;;;;;;;4.21;40.15;96804.03;5045397;28;20466;-75
2022/03/07 10:47:17;;;;;;;10.30;7.40;;;;;;;3.62;39.72;96803.72;5045614;28;20887;-75
2022/03/07 10:50:00;;;;;;;11.50;7.50;;;;;;;3.41;41.03;96809.41;5051167;28;20458;-75
2022/03/07 10:52:35;;;;;;;10.47;7.53;;;;;;;3.33;41.89;96814.28;5045490;28;21243;-75
2022/03/07 10:55:01;;;;;;;12.83;8.30;;;;;;;2.75;41.71;96818.00;5039680;28;20482;-75
2022/03/07 10:57:27;;;;;;;14.60;7.83;;;;;;;3.06;40.53;96801.31;5048791;28;20472;-75
2022/03/07 11:00:06;;;;;;;11.67;7.97;;;;;;;3.53;40.43;96800.81;5051507;28;20029;-75
2022/03/07 11:02:43;;;;;;;10.73;8.37;;;;;;;3.07;41.54;96809.00;5051218;28;20980;-75
2022/03/07 11:05:11;;;;;;;13.13;7.80;;;;;;;3.83;41.37;96807.50;5048834;28;20443;-75
2022/03/07 11:07:38;;;;;;;13.10;8.87;;;;;;;2.83;41.74;96810.59;5042086;28;20448;-74
2022/03/07 11:10:06;;;;;;;13.67;9.17;;;;;;;2.43;42.27;96810.50;5041680;28;20436;-73
2022/03/07 11:12:37;;;;;;;13.50;7.57;;;;;;;2.79;41.44;96816.91;5042749;28;20818;-73
2022/03/07 11:15:12;;;;;;;10.50;8.00;;;;;;;3.49;39.98;96807.16;5044697;28;21252;-74
2022/03/07 11:17:44;;;;;;;14.47;8.40;;;;;;;3.95;40.99;96798.84;5051719;28;20495;-74
2022/03/07 11:20:15;;;;;;;13.57;9.33;;;;;;;4.63;39.76;96791.59;5050421;28;20471;-74
2022/03/07 11:22:51;;;;;;;11.97;8.10;;;;;;;5.55;38.87;96785.69;5026394;28;20532;-74
2022/03/07 11:25:18;;;;;;;15.63;8.83;;;;;;;6.61;36.95;96777.59;5037624;28;20686;-74
2022/03/07 11:27:44;;;;;;;12.67;9.03;;;;;;;5.99;36.11;96775.47;5038629;28;20456;-74
2022/03/07 11:30:18;;;;;;;11.77;8.10;;;;;;;5.24;38.58;96792.34;5046529;28;20063;-74
2022/03/07 11:32:45;;;;;;;11.77;8.80;;;;;;;5.47;37.48;96775.00;5049181;28;20973;-74